Time;durP1;ratioP1;P1;durP2;ratioP2;P2;SDS_P1;SDS_P2;PMS_P1;PMS_P2;Temp;Humidity;BMP_temperature;BMP_pressure;BME280_temperature;BME280_humidity;BME280_pressure;Samples;Min_cycle;Max_cycle;Signal;HPM_P1;HPM_P2
2021/03/18 00:00:50;;;;;;;15.52;7.30;;;0.60;99.90;;;;;;5060037;28;20032;-55
2021/03/18 00:03:18;;;;;;;12.98;7.20;;;0.60;99.90;;;;;;5059772;28;20036;-51
2021/03/18 00:05:44;;;;;;;15.98;8.07;;;0.60;99.90;;;;;;5058489;28;20098;-48
2021/03/18 00:08:10;;;;;;;16.08;7.57;;;0.60;99.90;;;;;;5060956;28;20037;-51
2021/03/18 00:10:36;;;;;;;16.83;8.05;;;0.70;99.90;;;;;;5060348;28;20068;-52
2021/03/18 00:13:04;;;;;;;19.05;9.15;;;0.70;99.90;;;;;;5059781;28;20044;-54
2021/03/18 00:15:31;;;;;;;14.65;8.93;;;0.80;99.90;;;;;;5049761;28;20405;-52
2021/03/18 00:17:56;;;;;;;23.63;9.50;;;0.80;99.90;;;;;;5047268;28;20041;-51
2021/03/18 00:20:22;;;;;;;25.63;11.75;;;0.80;99.90;;;;;;5046912;28;20037;-50
2021/03/18 00:22:48;;;;;;;22.20;12.60;;;0.80;99.90;;;;;;5047536;28;20135;-50
2021/03/18 00:25:17;;;;;;;25.48;13.32;;;0.70;99.90;;;;;;5046917;28;20072;-48
2021/03/18 00:27:45;;;;;;;25.55;13.55;;;0.70;99.90;;;;;;5047302;28;20196;-51
2021/03/18 00:30:13;;;;;;;20.20;11.93;;;0.70;99.90;;;;;;5047261;28;20041;-56
2021/03/18 00:32:40;;;;;;;26.55;13.18;;;0.70;99.90;;;;;;5047120;28;20075;-51
2021/03/18 00:35:09;;;;;;;30.75;14.13;;;0.60;99.90;;;;;;5046631;28;20037;-52
2021/03/18 00:37:37;;;;;;;25.23;14.25;;;0.50;99.90;;;;;;5046668;28;20692;-54
2021/03/18 00:40:08;;;;;;;24.75;12.82;;;0.50;99.90;;;;;;5047054;28;20045;-54
2021/03/18 00:42:34;;;;;;;24.80;12.57;;;0.40;99.90;;;;;;5046359;28;20076;-54
2021/03/18 00:45:00;;;;;;;22.73;11.68;;;0.40;99.90;;;;;;5046869;28;20063;-52
2021/03/18 00:47:26;;;;;;;21.85;10.77;;;0.30;99.90;;;;;;5045495;28;20053;-52
2021/03/18 00:49:51;;;;;;;23.42;11.90;;;0.30;99.90;;;;;;5046179;28;20074;-52
2021/03/18 00:52:17;;;;;;;21.88;12.05;;;0.30;99.90;;;;;;5046949;28;20028;-53
2021/03/18 00:54:42;;;;;;;21.58;11.93;;;0.30;99.90;;;;;;5046861;28;20091;-53
2021/03/18 00:57:08;;;;;;;20.73;11.68;;;0.30;99.90;;;;;;5046108;28;20043;-52
2021/03/18 00:59:33;;;;;;;24.83;11.90;;;0.20;99.90;;;;;;5047307;28;20036;-52
2021/03/18 01:01:59;;;;;;;22.17;12.63;;;0.20;99.90;;;;;;5044669;28;20037;-53
2021/03/18 01:04:25;;;;;;;29.52;12.90;;;0.10;99.90;;;;;;5046762;28;20532;-52
2021/03/18 01:06:50;;;;;;;23.83;13.43;;;0.10;99.90;;;;;;5046240;28;20390;-53
2021/03/18 01:09:16;;;;;;;21.73;12.77;;;0.10;99.90;;;;;;5046821;28;20037;-55
2021/03/18 01:11:41;;;;;;;20.55;12.20;;;0.00;99.90;;;;;;5038479;28;20095;-51
2021/03/18 01:14:11;;;;;;;21.70;12.75;;;0.10;99.90;;;;;;5044454;28;20033;-50
2021/03/18 01:16:47;;;;;;;24.50;13.05;;;0.00;99.90;;;;;;5045321;28;20045;-50
2021/03/18 01:19:14;;;;;;;22.67;11.60;;;0.00;99.90;;;;;;5045687;28;20063;-52
2021/03/18 01:21:47;;;;;;;26.30;11.98;;;0.00;99.90;;;;;;5047489;28;20682;-48
2021/03/18 01:24:14;;;;;;;24.48;12.05;;;-0.10;99.90;;;;;;5049078;28;20044;-51
2021/03/18 01:26:40;;;;;;;26.25;12.73;;;-0.20;99.90;;;;;;5047343;28;20122;-53
2021/03/18 01:29:07;;;;;;;27.45;13.43;;;-0.30;99.90;;;;;;5047114;28;20230;-56
2021/03/18 01:31:34;;;;;;;21.45;11.07;;;-0.30;99.90;;;;;;5045414;28;20049;-53
2021/03/18 01:34:00;;;;;;;24.23;12.32;;;-0.30;99.90;;;;;;5045873;28;20037;-52
2021/03/18 01:36:29;;;;;;;23.88;11.23;;;-0.30;99.90;;;;;;5045892;28;20062;-49
2021/03/18 01:38:55;;;;;;;20.48;10.95;;;-0.30;99.90;;;;;;5045782;28;20128;-50
2021/03/18 01:41:22;;;;;;;21.67;11.73;;;-0.30;99.90;;;;;;5045432;28;20898;-50
2021/03/18 01:43:48;;;;;;;29.77;13.18;;;-0.30;99.90;;;;;;5045544;28;20041;-53
2021/03/18 01:46:14;;;;;;;28.58;13.63;;;-0.40;99.90;;;;;;5045583;28;20032;-50
2021/03/18 01:48:41;;;;;;;21.88;12.10;;;-0.40;99.90;;;;;;5045959;28;20041;-51
2021/03/18 01:51:08;;;;;;;22.83;12.05;;;-0.40;99.90;;;;;;5045378;28;20460;-56
2021/03/18 01:53:34;;;;;;;26.63;12.45;;;-0.40;99.90;;;;;;5045782;28;20037;-54
2021/03/18 01:56:04;;;;;;;21.00;10.25;;;-0.50;99.90;;;;;;5045267;28;20037;-54
2021/03/18 01:58:31;;;;;;;21.05;11.13;;;-0.50;99.90;;;;;;5045562;28;20048;-56
2021/03/18 02:01:01;;;;;;;18.10;9.85;;;-0.50;99.90;;;;;;5044596;28;20040;-53
2021/03/18 02:03:27;;;;;;;22.27;10.68;;;-0.50;99.90;;;;;;5045491;28;20075;-51
2021/03/18 02:05:54;;;;;;;18.13;10.70;;;-0.60;99.90;;;;;;5046037;28;20033;-50
2021/03/18 02:08:19;;;;;;;19.85;11.18;;;-0.60;99.90;;;;;;5045038;28;20087;-53
2021/03/18 02:10:45;;;;;;;19.73;11.18;;;-0.60;99.90;;;;;;5044566;28;20040;-50
2021/03/18 02:13:13;;;;;;;21.40;11.05;;;-0.50;99.90;;;;;;5044735;28;20045;-53
2021/03/18 02:15:44;;;;;;;20.83;11.70;;;-0.60;99.90;;;;;;5043566;28;20041;-53
2021/03/18 02:18:34;;;;;;;21.13;11.30;;;-0.70;99.90;;;;;;5046060;28;20041;-50
2021/03/18 02:21:25;;;;;;;22.58;11.13;;;-0.70;99.90;;;;;;5038800;28;20036;-53
2021/03/18 02:24:14;;;;;;;26.33;13.93;;;-0.70;99.90;;;;;;5044823;28;20095;-53
2021/03/18 02:27:00;;;;;;;21.50;12.50;;;-0.70;99.90;;;;;;5044349;28;20114;-53
2021/03/18 02:29:41;;;;;;;20.23;11.55;;;-0.70;99.90;;;;;;5044733;28;20044;-53
2021/03/18 02:32:39;;;;;;;19.65;11.45;;;-0.80;99.90;;;;;;5044112;28;20132;-52
2021/03/18 02:35:16;;;;;;;26.52;12.57;;;-0.80;99.90;;;;;;5045590;28;20061;-56
2021/03/18 02:37:47;;;;;;;21.52;11.85;;;-0.90;99.90;;;;;;5043486;28;20512;-51
2021/03/18 02:40:16;;;;;;;25.85;12.98;;;-0.80;99.90;;;;;;5043493;28;20496;-55
2021/03/18 02:42:47;;;;;;;23.40;12.25;;;-0.90;99.90;;;;;;5044130;28;20067;-53
2021/03/18 02:45:13;;;;;;;23.73;13.88;;;-0.90;99.90;;;;;;5043587;28;20094;-52
2021/03/18 02:47:42;;;;;;;21.30;11.57;;;-0.90;99.90;;;;;;5044704;28;20033;-52
2021/03/18 02:50:09;;;;;;;23.48;12.82;;;-0.90;99.90;;;;;;5044669;28;20079;-53
2021/03/18 02:52:39;;;;;;;20.02;11.95;;;-0.90;99.90;;;;;;5043890;28;20040;-51
2021/03/18 02:55:07;;;;;;;26.92;12.85;;;-0.90;99.90;;;;;;5044138;28;20690;-54
2021/03/18 02:57:36;;;;;;;26.35;14.15;;;-0.90;99.90;;;;;;5044520;28;20045;-53
2021/03/18 03:00:05;;;;;;;26.30;13.05;;;-0.90;99.90;;;;;;5043982;28;20577;-50
2021/03/18 03:02:31;;;;;;;28.80;14.07;;;-1.00;99.90;;;;;;5043784;28;20041;-54
2021/03/18 03:04:58;;;;;;;25.58;13.98;;;-1.00;99.90;;;;;;5043377;28;20515;-51
2021/03/18 03:07:26;;;;;;;30.52;14.70;;;-1.00;99.90;;;;;;5044451;28;20033;-49
2021/03/18 03:09:54;;;;;;;26.17;14.48;;;-1.00;99.90;;;;;;5043834;28;20123;-50
2021/03/18 03:12:23;;;;;;;31.98;14.32;;;-1.00;99.90;;;;;;5039864;28;20098;-51
2021/03/18 03:14:50;;;;;;;28.40;15.07;;;-1.00;99.90;;;;;;5044417;28;20043;-52
2021/03/18 03:17:20;;;;;;;25.10;13.32;;;-1.00;99.90;;;;;;5043729;28;20611;-52
2021/03/18 03:19:46;;;;;;;23.65;12.77;;;-1.10;99.90;;;;;;5044315;28;20045;-53
2021/03/18 03:22:12;;;;;;;21.48;12.73;;;-1.00;99.90;;;;;;5044306;28;20041;-48
2021/03/18 03:24:41;;;;;;;23.58;13.13;;;-1.10;99.90;;;;;;5044124;28;20060;-50
2021/03/18 03:27:07;;;;;;;28.63;14.18;;;-1.00;99.90;;;;;;5043951;28;20033;-53
2021/03/18 03:29:35;;;;;;;25.25;13.25;;;-1.10;99.90;;;;;;5045079;28;20041;-51
2021/03/18 03:32:04;;;;;;;27.42;13.32;;;-1.20;99.90;;;;;;5044111;28;20077;-48
2021/03/18 03:34:31;;;;;;;38.00;16.58;;;-1.20;99.90;;;;;;5044891;28;20056;-55
2021/03/18 03:36:57;;;;;;;33.90;15.77;;;-1.20;99.90;;;;;;5044894;28;20048;-51
2021/03/18 03:39:22;;;;;;;30.85;16.25;;;-1.30;99.90;;;;;;5044133;28;20049;-53
2021/03/18 03:41:48;;;;;;;25.50;13.73;;;-1.20;99.90;;;;;;5038229;28;20034;-52
2021/03/18 03:44:13;;;;;;;24.25;13.00;;;-1.30;99.90;;;;;;5043951;28;20047;-53
2021/03/18 03:46:39;;;;;;;27.77;14.27;;;-1.20;99.90;;;;;;5043895;28;20083;-55
2021/03/18 03:49:06;;;;;;;31.20;14.75;;;-1.20;99.90;;;;;;5044468;28;20041;-48
2021/03/18 03:51:40;;;;;;;21.42;11.00;;;-1.20;99.90;;;;;;5047393;28;20765;-52
2021/03/18 03:54:09;;;;;;;27.98;13.52;;;-1.20;99.90;;;;;;5047720;28;20041;-52
2021/03/18 03:56:58;;;;;;;30.20;14.68;;;-1.10;99.90;;;;;;5048069;28;20068;-48
2021/03/18 03:59:24;;;;;;;24.95;13.93;;;-1.10;99.90;;;;;;5048431;28;20075;-48
2021/03/18 04:01:53;;;;;;;28.50;14.88;;;-1.10;99.90;;;;;;5046509;28;20043;-57
2021/03/18 04:04:24;;;;;;;25.63;13.85;;;-1.10;99.90;;;;;;5047272;28;20044;-48
2021/03/18 04:06:54;;;;;;;25.63;13.82;;;-1.10;99.90;;;;;;5048134;28;20136;-49
2021/03/18 04:09:22;;;;;;;28.52;14.65;;;-1.20;99.90;;;;;;5039979;28;20064;-49
2021/03/18 04:11:49;;;;;;;29.50;14.45;;;-1.20;99.90;;;;;;5047458;28;20037;-52
2021/03/18 04:14:16;;;;;;;27.35;14.63;;;-1.20;99.90;;;;;;5047776;28;20058;-52
2021/03/18 04:16:44;;;;;;;31.58;14.68;;;-1.20;99.90;;;;;;5046603;28;20139;-51
2021/03/18 04:19:14;;;;;;;27.80;14.63;;;-1.20;99.90;;;;;;5047970;28;20747;-49
2021/03/18 04:21:41;;;;;;;29.75;15.88;;;-1.20;99.90;;;;;;5047128;28;20068;-52
2021/03/18 04:24:09;;;;;;;22.58;13.02;;;-1.10;99.90;;;;;;5047289;28;20053;-54
2021/03/18 04:26:37;;;;;;;26.60;13.32;;;-1.20;99.90;;;;;;5047926;28;20591;-52
2021/03/18 04:29:05;;;;;;;23.48;13.52;;;-1.20;99.90;;;;;;5047161;28;20049;-53
2021/03/18 04:31:33;;;;;;;28.85;13.90;;;-1.10;99.90;;;;;;5047007;28;20072;-50
2021/03/18 04:34:00;;;;;;;33.85;15.23;;;-1.10;99.90;;;;;;5046492;28;20048;-49
2021/03/18 04:36:27;;;;;;;27.90;14.43;;;-1.10;99.90;;;;;;5040010;28;20502;-51
2021/03/18 04:38:54;;;;;;;26.33;14.73;;;-1.20;99.90;;;;;;5047830;28;20049;-51
2021/03/18 04:41:20;;;;;;;28.23;14.98;;;-1.10;99.90;;;;;;5046235;28;20745;-54
2021/03/18 04:43:46;;;;;;;30.33;14.40;;;-1.10;99.90;;;;;;5047470;28;20041;-52
2021/03/18 04:46:12;;;;;;;27.45;14.60;;;-1.10;99.90;;;;;;5046511;28;20118;-49
2021/03/18 04:48:38;;;;;;;29.52;13.75;;;-1.20;99.90;;;;;;5047234;28;20116;-55
2021/03/18 04:51:09;;;;;;;28.45;15.32;;;-1.20;99.90;;;;;;5047080;28;20531;-54
2021/03/18 04:53:35;;;;;;;28.30;15.20;;;-1.30;99.90;;;;;;5039482;28;20752;-53
2021/03/18 04:56:04;;;;;;;28.20;14.45;;;-1.30;99.90;;;;;;5046806;28;20037;-48
2021/03/18 04:58:31;;;;;;;24.95;13.30;;;-1.30;99.90;;;;;;5046999;28;20044;-56
2021/03/18 05:00:58;;;;;;;28.67;13.85;;;-1.20;99.90;;;;;;5047534;28;20058;-54
2021/03/18 05:03:24;;;;;;;29.92;14.98;;;-1.20;99.90;;;;;;5045753;28;21219;-50
2021/03/18 05:05:52;;;;;;;31.60;14.90;;;-1.10;99.90;;;;;;5046731;28;20041;-52
2021/03/18 05:08:18;;;;;;;25.45;14.35;;;-1.00;99.90;;;;;;5047571;28;20204;-52
2021/03/18 05:10:45;;;;;;;28.80;15.77;;;-1.00;99.90;;;;;;5046089;28;20102;-51
2021/03/18 05:13:12;;;;;;;31.83;15.40;;;-1.00;99.90;;;;;;5046529;28;20041;-51
2021/03/18 05:15:39;;;;;;;25.63;14.00;;;-0.90;99.90;;;;;;5046217;28;20130;-49
2021/03/18 05:18:08;;;;;;;27.83;13.88;;;-0.90;99.90;;;;;;5046803;28;20048;-53
2021/03/18 05:20:35;;;;;;;25.75;14.27;;;-0.90;99.90;;;;;;5046742;28;20041;-56
2021/03/18 05:23:01;;;;;;;27.33;14.80;;;-0.90;99.90;;;;;;5046343;28;20041;-52
2021/03/18 05:25:30;;;;;;;31.90;15.45;;;-1.00;99.90;;;;;;5046153;28;20423;-56
2021/03/18 05:27:57;;;;;;;21.77;12.00;;;-1.00;99.90;;;;;;5045630;28;20036;-55
2021/03/18 05:30:25;;;;;;;20.35;11.18;;;-1.00;99.90;;;;;;5045537;28;20120;-52
2021/03/18 05:32:51;;;;;;;23.15;12.73;;;-1.00;99.90;;;;;;5038842;28;20554;-55
2021/03/18 05:35:16;;;;;;;25.52;13.10;;;-0.90;99.90;;;;;;5045920;28;20040;-54
2021/03/18 05:37:42;;;;;;;25.08;13.18;;;-0.90;99.90;;;;;;5045925;28;20136;-57
2021/03/18 05:40:10;;;;;;;28.38;14.27;;;-0.90;99.90;;;;;;5046080;28;20124;-54
2021/03/18 05:42:36;;;;;;;22.60;12.27;;;-0.90;99.90;;;;;;5045016;28;20496;-52
2021/03/18 05:45:04;;;;;;;30.20;13.95;;;-0.80;99.90;;;;;;5046195;28;20832;-50
2021/03/18 05:47:32;;;;;;;24.70;13.02;;;-0.80;99.90;;;;;;5063930;28;20174;-53
2021/03/18 05:49:58;;;;;;;23.55;12.75;;;-0.70;99.90;;;;;;5065750;28;20662;-52
2021/03/18 05:52:25;;;;;;;19.88;10.57;;;-0.70;99.90;;;;;;5064616;28;20733;-52
2021/03/18 05:54:52;;;;;;;47.72;23.92;;;-0.50;99.90;;;;;;5065003;28;20122;-49
2021/03/18 05:57:19;;;;;;;30.33;16.08;;;-0.50;99.90;;;;;;5065540;28;20055;-49
2021/03/18 05:59:45;;;;;;;27.25;14.75;;;-0.40;99.90;;;;;;5063821;28;20041;-51
2021/03/18 06:02:12;;;;;;;27.27;13.60;;;-0.30;99.90;;;;;;5064072;28;20171;-52
2021/03/18 06:04:38;;;;;;;24.67;13.60;;;-0.30;99.90;;;;;;5064249;28;20569;-55
2021/03/18 06:07:04;;;;;;;29.88;16.25;;;-0.20;99.90;;;;;;5058832;28;20070;-55
2021/03/18 06:09:30;;;;;;;23.48;13.00;;;-0.10;99.90;;;;;;5064586;28;20090;-54
2021/03/18 06:11:56;;;;;;;24.40;12.88;;;-0.10;99.90;;;;;;5039456;28;20029;-54
2021/03/18 06:14:21;;;;;;;25.25;13.13;;;0.00;99.90;;;;;;5063451;28;20051;-60
2021/03/18 06:16:48;;;;;;;22.42;13.18;;;0.00;99.90;;;;;;5064067;28;20028;-56
2021/03/18 06:19:15;;;;;;;23.13;13.10;;;0.10;99.90;;;;;;5064447;28;20106;-55
2021/03/18 06:21:55;;;;;;;23.70;12.82;;;0.10;99.90;;;;;;5056962;28;20131;-56
2021/03/18 06:24:23;;;;;;;23.83;12.43;;;0.20;99.90;;;;;;5064524;28;20183;-58
2021/03/18 06:26:49;;;;;;;23.45;13.18;;;0.20;99.90;;;;;;5064714;28;20598;-55
2021/03/18 06:29:40;;;;;;;23.73;13.13;;;0.30;99.90;;;;;;5065382;28;20507;-54
2021/03/18 06:32:12;;;;;;;23.77;12.20;;;0.40;99.90;;;;;;5057627;28;20037;-60
2021/03/18 06:34:49;;;;;;;23.55;12.18;;;0.50;99.90;;;;;;5064958;28;20036;-54
2021/03/18 06:37:40;;;;;;;20.17;12.35;;;0.60;99.90;;;;;;5063491;28;20055;-56
2021/03/18 06:40:19;;;;;;;25.45;13.63;;;0.70;99.90;;;;;;5056952;28;20041;-58
2021/03/18 06:42:59;;;;;;;21.50;12.13;;;0.70;99.90;;;;;;5063114;28;20052;-58
2021/03/18 06:45:31;;;;;;;23.17;13.02;;;0.70;99.90;;;;;;5058660;28;20036;-60
2021/03/18 06:48:10;;;;;;;25.50;13.60;;;0.60;99.90;;;;;;5055474;28;20033;-54
2021/03/18 06:50:40;;;;;;;21.02;11.85;;;0.60;99.90;;;;;;5062645;28;20043;-52
2021/03/18 06:53:23;;;;;;;18.75;10.32;;;0.70;99.90;;;;;;5063822;28;20131;-54
2021/03/18 06:55:51;;;;;;;20.40;11.07;;;0.80;99.90;;;;;;5073811;28;20051;-58
2021/03/18 06:58:26;;;;;;;18.42;10.13;;;0.80;99.90;;;;;;5076161;28;20098;-62
2021/03/18 07:01:06;;;;;;;19.63;10.77;;;0.90;99.90;;;;;;5060164;28;20798;-54
2021/03/18 07:03:39;;;;;;;17.33;10.48;;;0.90;99.90;;;;;;5064118;28;20071;-59
2021/03/18 07:06:07;;;;;;;19.70;10.43;;;0.90;99.90;;;;;;5063114;28;20151;-53
2021/03/18 07:08:35;;;;;;;20.92;10.85;;;0.90;99.90;;;;;;5063954;28;20079;-60
2021/03/18 07:11:18;;;;;;;18.83;10.50;;;0.80;99.90;;;;;;5062795;28;20040;-52
2021/03/18 07:13:45;;;;;;;46.90;24.90;;;0.70;99.90;;;;;;5058412;28;20123;-55
2021/03/18 07:16:12;;;;;;;27.15;15.05;;;0.70;99.90;;;;;;5063921;28;20489;-52
2021/03/18 07:18:39;;;;;;;26.38;12.30;;;0.80;99.90;;;;;;5064379;28;20049;-53
2021/03/18 07:21:10;;;;;;;20.88;10.63;;;0.70;99.90;;;;;;5063942;28;20040;-51
2021/03/18 07:23:47;;;;;;;21.77;11.48;;;0.80;99.90;;;;;;5063982;28;20567;-63
2021/03/18 07:26:21;;;;;;;26.08;13.50;;;0.80;99.90;;;;;;5067516;28;20075;-58
2021/03/18 07:28:51;;;;;;;21.27;10.77;;;0.70;99.90;;;;;;5066887;28;20407;-52
2021/03/18 07:31:18;;;;;;;24.38;12.38;;;0.80;99.90;;;;;;5064342;28;20479;-55
2021/03/18 07:33:44;;;;;;;26.70;14.23;;;0.80;99.90;;;;;;5064660;28;20041;-52
2021/03/18 07:36:15;;;;;;;21.85;11.90;;;0.80;99.90;;;;;;5067711;28;20036;-52
2021/03/18 07:38:42;;;;;;;23.42;12.23;;;0.90;99.90;;;;;;5067034;28;20041;-51
2021/03/18 07:41:13;;;;;;;26.17;13.00;;;1.00;99.90;;;;;;5066820;28;20620;-54
2021/03/18 07:43:45;;;;;;;31.50;15.10;;;1.00;99.90;;;;;;5063449;28;20044;-56
2021/03/18 07:46:16;;;;;;;30.80;13.45;;;1.10;99.90;;;;;;5065897;28;20040;-56
2021/03/18 07:48:59;;;;;;;26.77;12.25;;;1.10;99.90;;;;;;5067283;28;20048;-54
2021/03/18 07:51:27;;;;;;;28.75;13.48;;;1.20;99.90;;;;;;5061506;28;20464;-49
2021/03/18 07:53:55;;;;;;;31.38;14.23;;;1.20;99.90;;;;;;5067205;28;20049;-51
2021/03/18 07:56:21;;;;;;;41.65;22.80;;;1.30;99.90;;;;;;5066525;28;20037;-55
2021/03/18 07:58:48;;;;;;;32.42;15.13;;;1.60;99.90;;;;;;5067383;28;20043;-56
2021/03/18 08:01:41;;;;;;;25.42;12.80;;;1.80;99.90;;;;;;5065854;28;20563;-54
2021/03/18 08:04:09;;;;;;;39.95;18.55;;;2.00;99.90;;;;;;5062107;28;20768;-53
2021/03/18 08:06:41;;;;;;;22.85;13.20;;;2.20;99.90;;;;;;5068397;28;20037;-50
2021/03/18 08:09:13;;;;;;;21.05;12.13;;;2.60;99.90;;;;;;5065688;28;20492;-55
2021/03/18 08:11:44;;;;;;;26.70;13.18;;;2.60;99.90;;;;;;5066011;28;20127;-49
2021/03/18 08:14:13;;;;;;;24.08;12.18;;;2.50;99.90;;;;;;5066353;28;20037;-50
2021/03/18 08:16:40;;;;;;;26.15;11.30;;;2.50;99.90;;;;;;5058891;28;20047;-53
2021/03/18 08:19:08;;;;;;;24.70;11.75;;;2.50;99.90;;;;;;5066872;28;20051;-54
2021/03/18 08:21:35;;;;;;;25.17;12.50;;;2.40;99.90;;;;;;5064849;28;20243;-53
2021/03/18 08:24:01;;;;;;;23.90;12.52;;;2.30;99.90;;;;;;5066697;28;20118;-53
2021/03/18 08:26:44;;;;;;;25.23;13.15;;;2.10;99.90;;;;;;5066484;28;20044;-50
2021/03/18 08:29:20;;;;;;;19.83;11.10;;;2.00;99.90;;;;;;5066825;28;20051;-52
2021/03/18 08:31:46;;;;;;;18.02;9.10;;;2.00;99.90;;;;;;5064706;28;20044;-52
2021/03/18 08:34:12;;;;;;;17.85;9.23;;;1.90;99.90;;;;;;5065022;28;20038;-53
2021/03/18 08:36:39;;;;;;;25.23;10.48;;;1.80;99.90;;;;;;5065390;28;20701;-54
2021/03/18 08:39:07;;;;;;;19.58;9.65;;;2.00;99.90;;;;;;5063225;28;20035;-53
2021/03/18 08:41:43;;;;;;;15.85;8.80;;;2.30;99.90;;;;;;5062353;28;20119;-56
2021/03/18 08:44:08;;;;;;;22.27;10.73;;;2.60;99.90;;;;;;5073405;28;20041;-54
2021/03/18 08:47:00;;;;;;;53.60;31.35;;;2.80;99.90;;;;;;5080756;28;20047;-52
2021/03/18 08:49:37;;;;;;;18.48;9.93;;;2.90;99.90;;;;;;5060860;28;20534;-50
2021/03/18 08:52:12;;;;;;;15.80;9.13;;;3.20;99.90;;;;;;5064157;28;20040;-54
2021/03/18 08:54:40;;;;;;;16.25;8.38;;;3.50;99.90;;;;;;5064492;28;20048;-54
2021/03/18 08:57:07;;;;;;;16.08;7.78;;;3.70;99.90;;;;;;5063111;28;20094;-54
2021/03/18 08:59:34;;;;;;;13.13;8.30;;;3.70;99.90;;;;;;5064969;28;20051;-56
2021/03/18 09:02:10;;;;;;;15.77;8.02;;;3.70;99.90;;;;;;5063030;28;20044;-51
2021/03/18 09:04:41;;;;;;;19.45;9.27;;;3.90;99.90;;;;;;5061503;28;20036;-55
2021/03/18 09:07:14;;;;;;;15.65;9.43;;;3.90;99.90;;;;;;5067648;28;20038;-53
2021/03/18 09:09:41;;;;;;;17.02;8.98;;;3.70;99.90;;;;;;5066236;28;20036;-54
2021/03/18 09:12:08;;;;;;;17.33;9.73;;;3.70;99.90;;;;;;5066050;28;20076;-52
2021/03/18 09:14:34;;;;;;;21.13;8.98;;;3.50;99.90;;;;;;5064136;28;20079;-55
2021/03/18 09:17:05;;;;;;;16.45;8.73;;;3.60;99.90;;;;;;5066942;28;20036;-55
2021/03/18 09:19:31;;;;;;;29.13;7.95;;;3.50;99.90;;;;;;5070321;28;20067;-56
2021/03/18 09:21:57;;;;;;;14.13;7.88;;;3.80;99.90;;;;;;5069488;28;20115;-57
2021/03/18 09:24:22;;;;;;;;;;;3.90;99.90;;;;;;5069163;28;20048;-57
2021/03/18 09:26:48;;;;;;;15.80;6.43;;;3.80;99.90;;;;;;5073157;28;19931;-57
2021/03/18 09:29:14;;;;;;;;;;;3.80;99.90;;;;;;5070296;28;20438;-58
2021/03/18 09:31:40;;;;;;;13.45;8.00;;;3.30;99.90;;;;;;5066840;28;19920;-54
2021/03/18 09:34:06;;;;;;;12.60;7.15;;;3.00;99.90;;;;;;5065542;28;20626;-57
2021/03/18 09:36:32;;;;;;;;;;;3.10;99.90;;;;;;5071339;28;20047;-55
2021/03/18 09:38:58;;;;;;;16.58;8.25;;;3.20;99.90;;;;;;5076728;28;20427;-54
2021/03/18 09:41:25;;;;;;;;;;;3.30;99.90;;;;;;5073774;28;20124;-54
2021/03/18 09:44:11;;;;;;;18.10;7.97;;;3.30;99.90;;;;;;5073853;28;20334;-55
2021/03/18 09:46:42;;;;;;;14.77;7.40;;;3.40;99.90;;;;;;5068714;28;20064;-54
2021/03/18 09:49:08;;;;;;;16.77;8.68;;;3.40;99.90;;;;;;5068866;28;20419;-52
2021/03/18 09:51:40;;;;;;;17.00;9.43;;;3.30;99.90;;;;;;5076777;28;20041;-55
2021/03/18 09:54:08;;;;;;;15.00;8.50;;;3.20;99.90;;;;;;5071409;28;20137;-53
2021/03/18 09:56:45;;;;;;;14.32;8.73;;;3.20;99.90;;;;;;5061736;28;20141;-52
2021/03/18 09:59:11;;;;;;;18.67;8.18;;;3.10;99.90;;;;;;5065162;28;20048;-49
2021/03/18 10:01:38;;;;;;;11.18;6.57;;;3.00;99.90;;;;;;5064461;28;20408;-51
2021/03/18 10:04:16;;;;;;;11.73;6.75;;;3.10;99.90;;;;;;5059677;28;20044;-52
2021/03/18 10:06:47;;;;;;;15.65;8.45;;;3.40;99.90;;;;;;5066457;28;20075;-54
2021/03/18 10:09:34;;;;;;;17.50;7.13;;;3.50;99.90;;;;;;5065366;28;20481;-52
2021/03/18 10:12:01;;;;;;;;;;;3.60;99.90;;;;;;5064070;28;20428;-49
2021/03/18 10:14:27;;;;;;;;;;;3.60;99.90;;;;;;5072052;28;19923;-55
2021/03/18 10:16:53;;;;;;;16.47;6.53;;;3.50;99.90;;;;;;5059414;28;19925;-58
2021/03/18 10:19:23;;;;;;;15.55;7.45;;;3.40;99.90;;;;;;5069489;28;20040;-52
2021/03/18 10:21:50;;;;;;;11.73;6.70;;;3.50;99.90;;;;;;5068297;28;20028;-59
2021/03/18 10:24:17;;;;;;;17.90;7.45;;;3.50;99.90;;;;;;5072218;28;20043;-51
2021/03/18 10:26:43;;;;;;;13.13;7.57;;;3.60;99.90;;;;;;5067014;28;20158;-58
2021/03/18 10:29:11;;;;;;;13.05;6.85;;;3.60;99.90;;;;;;5073756;28;20186;-54
2021/03/18 10:31:39;;;;;;;12.90;7.00;;;3.60;99.90;;;;;;5063623;28;20047;-48
2021/03/18 10:34:06;;;;;;;14.25;6.80;;;3.70;99.90;;;;;;5064348;28;20041;-54
2021/03/18 10:36:37;;;;;;;14.63;7.65;;;3.80;99.90;;;;;;5065261;28;20090;-56
2021/03/18 10:39:08;;;;;;;13.40;7.07;;;3.80;99.90;;;;;;5065687;28;20047;-55
2021/03/18 10:41:46;;;;;;;15.68;7.47;;;3.80;99.90;;;;;;5064726;28;20123;-56
2021/03/18 10:44:12;;;;;;;14.55;6.82;;;4.00;99.90;;;;;;5063582;28;20053;-54
2021/03/18 10:46:38;;;;;;;13.20;7.43;;;4.10;99.90;;;;;;5063813;28;20508;-52
2021/03/18 10:49:04;;;;;;;;;;;4.20;99.90;;;;;;5064783;28;20102;-52
2021/03/18 10:51:30;;;;;;;14.32;7.10;;;4.40;99.90;;;;;;5064577;28;19924;-55
2021/03/18 10:53:56;;;;;;;14.15;7.30;;;4.40;99.90;;;;;;5064870;28;20051;-55
2021/03/18 10:56:28;;;;;;;10.02;6.50;;;4.00;99.90;;;;;;5063993;28;20049;-56
2021/03/18 10:58:54;;;;;;;11.05;6.40;;;3.90;99.90;;;;;;5064016;28;20047;-51
2021/03/18 11:01:23;;;;;;;16.20;8.10;;;3.80;99.90;;;;;;5062360;28;20045;-52
2021/03/18 11:03:49;;;;;;;15.50;7.57;;;3.70;99.90;;;;;;5064098;28;20074;-54
2021/03/18 11:06:16;;;;;;;15.60;9.52;;;3.60;99.90;;;;;;5063712;28;20032;-55
2021/03/18 11:08:44;;;;;;;22.65;10.77;;;3.60;99.90;;;;;;5063603;28;20037;-56
2021/03/18 11:11:32;;;;;;;21.55;10.52;;;3.50;99.90;;;;;;5063894;28;20043;-56
2021/03/18 11:14:06;;;;;;;27.33;11.27;;;3.50;99.90;;;;;;5061372;28;20389;-57
2021/03/18 11:16:32;;;;;;;26.90;11.57;;;3.50;99.90;;;;;;5063606;28;20717;-57
2021/03/18 11:19:00;;;;;;;23.27;11.50;;;3.50;99.90;;;;;;5064515;28;20044;-52
2021/03/18 11:21:29;;;;;;;20.90;10.55;;;3.60;99.90;;;;;;5064427;28;20037;-55
2021/03/18 11:24:07;;;;;;;20.98;10.10;;;3.40;99.90;;;;;;5064659;28;20127;-57
2021/03/18 11:26:34;;;;;;;17.17;9.45;;;3.30;99.90;;;;;;5063996;28;20094;-54
2021/03/18 11:29:11;;;;;;;17.42;8.60;;;3.40;99.90;;;;;;5063786;28;20064;-56
2021/03/18 11:31:54;;;;;;;20.63;8.85;;;3.80;99.90;;;;;;5062839;28;20512;-58
2021/03/18 11:34:29;;;;;;;21.75;7.47;;;4.00;99.90;;;;;;5064558;28;20123;-55
2021/03/18 11:37:09;;;;;;;15.27;6.78;;;4.30;99.90;;;;;;5056056;28;20028;-56
2021/03/18 11:39:35;;;;;;;9.60;5.05;;;4.60;99.90;;;;;;5064563;28;20041;-52
2021/03/18 11:42:02;;;;;;;15.55;6.20;;;4.70;99.90;;;;;;5060072;28;20039;-55
2021/03/18 11:44:29;;;;;;;13.45;4.72;;;4.70;99.90;;;;;;5063423;28;20119;-56
2021/03/18 11:47:09;;;;;;;13.20;4.35;;;4.60;97.60;;;;;;5064066;28;20036;-56
2021/03/18 11:49:35;;;;;;;10.07;4.45;;;4.50;98.80;;;;;;5057586;28;20040;-55
2021/03/18 11:52:02;;;;;;;10.23;4.50;;;4.60;99.40;;;;;;5062177;28;20051;-55
2021/03/18 11:54:27;;;;;;;9.23;4.75;;;4.70;98.50;;;;;;5064592;28;20037;-53
2021/03/18 11:56:53;;;;;;;;;;;4.60;98.80;;;;;;5064011;28;20739;-53
2021/03/18 11:59:18;;;;;;;14.27;6.18;;;4.70;99.20;;;;;;5064001;28;19992;-58
2021/03/18 12:01:45;;;;;;;12.40;5.85;;;4.80;99.90;;;;;;5063063;28;20066;-55
2021/03/18 12:04:10;;;;;;;9.10;5.13;;;4.90;99.10;;;;;;5063676;28;20147;-57
2021/03/18 12:06:36;;;;;;;8.85;4.95;;;5.00;98.60;;;;;;5063634;28;20750;-57
2021/03/18 12:09:02;;;;;;;;;;;4.90;98.10;;;;;;5064690;28;20041;-55
2021/03/18 12:11:27;;;;;;;13.90;6.78;;;5.00;98.50;;;;;;5065101;28;19916;-57
2021/03/18 12:13:53;;;;;;;;;;;5.10;99.40;;;;;;5067439;28;21136;-52
2021/03/18 12:16:18;;;;;;;12.77;6.25;;;5.20;98.10;;;;;;5066758;28;19916;-57
2021/03/18 12:18:44;;;;;;;;;;;5.00;97.60;;;;;;5068618;28;20727;-54
2021/03/18 12:21:09;;;;;;;16.48;6.80;;;4.90;98.30;;;;;;5067058;28;19970;-58
2021/03/18 12:23:35;;;;;;;;;;;4.70;97.40;;;;;;5067378;28;20041;-52
2021/03/18 12:26:01;;;;;;;11.02;6.18;;;4.40;99.00;;;;;;5067281;28;19920;-55
2021/03/18 12:28:27;;;;;;;;;;;4.40;99.50;;;;;;5066213;28;20040;-57
2021/03/18 12:30:52;;;;;;;17.00;7.00;;;4.30;99.40;;;;;;5066436;28;20284;-56
2021/03/18 12:33:19;;;;;;;13.52;7.70;;;4.00;99.90;;;;;;5066748;28;20116;-52
2021/03/18 12:35:50;;;;;;;14.32;7.88;;;4.00;99.90;;;;;;5067204;28;20203;-55
2021/03/18 12:38:19;;;;;;;16.23;7.88;;;3.90;99.90;;;;;;5067061;28;20671;-51
2021/03/18 12:40:44;;;;;;;15.13;8.38;;;4.00;99.90;;;;;;5067761;28;20107;-56
2021/03/18 12:43:10;;;;;;;15.32;7.38;;;4.20;99.90;;;;;;5063122;28;20284;-53
2021/03/18 12:45:36;;;;;;;;;;;4.50;99.90;;;;;;5064321;28;20032;-53
2021/03/18 12:48:03;;;;;;;12.68;6.90;;;4.80;99.90;;;;;;5067308;28;20014;-52
2021/03/18 12:50:29;;;;;;;14.27;6.75;;;5.00;99.90;;;;;;5066806;28;20064;-51